Union City, TN

09:20 AM CDT am 02. August 2015 (GMT -0500)
Everett-Stewart | | Change Station
CLOSE
Current Station
Flughafen
Location: Everett-Stewart Regional Airp,
Höhe: 341 ft
Wetterstationen in der Umgebung

Höhe 341 ft 36.38 °N, 88.99 °W | Updated 5 minutes ago

Heiter
Heiter
81 °F
gefühlte 84 °F
N
6
Wind Wechselnd Wind aus Südost

Heute
Max. -- | schwach -- °F
--% Regenrisiko
Gestern
Max. -- | schwach -- °F
Precip. -- inch
6:03 AM 8:01 PM
Drittes Viertel, 93% visible
Druck 29.99 inch
Sichtweite 10.0 Meilen
Wolken Heiter
Hitzeindex 84 °F
Taupunkt 70 °F
Feuchtigkeit 70%
Regen 0.00 inch
Schneehöhe Nicht verfügbar..
UV 4 von 12
Pollen 7.50 von 12
Luftqualität Nicht verfügbar..
Flu Activity Nicht verfügbar..
METAR KUCY 021415Z AUTO 13005KT 10SM CLR 27/21 A2999 RMK

More Conditions Fewer Conditions

Druck 29.99 inch
Sichtweite 10.0 Meilen
Wolken Heiter
Hitzeindex 84 °F
Taupunkt 70 °F
Feuchtigkeit 70%
Regen 0.00 inch
Schneehöhe Nicht verfügbar..
UV 4 von 12
Pollen 7.50 von 12
Luftqualität Nicht verfügbar..
Flu Activity Nicht verfügbar..
METAR KUCY 021415Z AUTO 13005KT 10SM CLR 27/21 A2999 RMK

More Conditions Fewer Conditions

10-Day Weather Forecast

×

Almanac

Astronomie

Aug. 02, 2015 Aufgang Untergang
Genaue Zeit
Bürgerliche Dämmerung
Nautische Dämmerung
Astronomische Dämmerung
Mond
Länge des sichtbaren Lichts
Tageslänge
Tomorrow will be .
, % of the Moon is Illuminated

Heutige Rekorde

State Highs State Lows

Community

WunderPhotos

Upload Photos

1,843,257 Fotos hochgeladen!

WunderBlogs® & News

Nearby

Luftqualität

  Luftqualität LQ Index Schadstoff
Not available.

Schneehöhe

Station Depth Höhe

Erdbebenaktivität

Stadt Distance Mag. Time & Date
Minimum magnitude displayed is 2.5.

küstennahe Wassertemperaturen

Ort Temperatur

Stations

Wetterstationen in der Umgebung

Stationsstandort Temp. Windchill Taupunkt Feuchtigkeit Wind Precip. Höhe Aktualisiert Art